Gillette, WY

9:04 AM MDT on September 30, 2014 (GMT -0600)
Gillette-Campbell County | Change Station
CLOSE
Current Station
Airport
Location: Gillette,
Elevation: 4364 ft
Nearby Weather Stations

Elev 4364 ft 44.34 °N, 105.54 °W | Updated 11 minutes ago

Rain
Rain
51 °F
Feels Like 51 °F
N
16
Wind Variable Wind from WNW
Gusts 23 mph

Today
High -- | Low -- °F
--% Chance of Precip.
Yesterday
High -- | Low -- °F
Precip. -- in
6:59 AM 6:45 PM
Waxing Crescent, 37% visible
Pressure 29.62 in
Visibility 9.0 miles
Clouds Few 3000 ft
Overcast 4800 ft
Dew Point 48 °F
Humidity 89%
Rainfall 0.39 in
Snow Depth 0 in , 1 in , 0 in
UV 0 out of 12
Pollen 2.70 out of 12
Air Quality Not available.
Flu Activity Not available.
METAR KGCC 301453Z AUTO 30014G20KT 9SM -RA FEW030 OVC048 11/09 A2967 RMK AO2 SLP028 P0004 60022 T01060089 53004

More Conditions Fewer Conditions

Pressure 29.62 in
Visibility 9.0 miles
Clouds Few 3000 ft
Overcast 4800 ft
Dew Point 48 °F
Humidity 89%
Rainfall 0.39 in
Snow Depth 0 in , 1 in , 0 in
UV 0 out of 12
Pollen 2.70 out of 12
Air Quality Not available.
Flu Activity Not available.
METAR KGCC 301453Z AUTO 30014G20KT 9SM -RA FEW030 OVC048 11/09 A2967 RMK AO2 SLP028 P0004 60022 T01060089 53004

More Conditions Fewer Conditions

10-Day Weather Forecast

Almanac

Astronomy

Sep. 30, 2014 Rise Set
Actual Time 6:59 AM MDT 6:45 PM MDT
Civil Twilight 6:30 AM MDT 7:14 PM MDT
Nautical Twilight 5:56 AM MDT 7:47 PM MDT
Astronomical Twilight 5:22 AM MDT 8:22 PM MDT
Moon 1:20 PM MDT 11:07 PM MDT
Length of Visible Light 12h 43m
Length of Day
11h 45m
Tomorrow will be 3m 3s shorter.
Waxing Crescent, 37% of the Moon is Illuminated
Today
Waxing Crescent
Oct 1
First Quarter
Oct 8
Full
Oct 15
Last Quarter
Oct 23
New

Today's Extremes

State Highs State Lows

Community

WunderPhotos

Upload Photos

1,757,641 photos uploaded!

WunderBlogs® & News

By Dr. Jeff Masters
Director of Meteorology, Weather Underground
By Kari Strenfel
Meteorologist, Weather Underground
By Christopher C. Burt
Weather Historian, Weather Underground
September 30, 2014
September 30, 2014
September 30, 2014

Nearby

Snow Depth

Station Depth Elevation
New Fork Lake 0 in 8340 ft
Cinnabar Park 1 in 9690 ft
Thumb Divide 0 in 7980 ft
Phillips Bench 0 in 8200 ft
Salt River Summit 1 in 7600 ft

Earthquake Activity

City Distance Mag. Time & Date
No recent earthquake activity has been reported nearby.
Minimum magnitude displayed is 2.5.

Coastal Water Temperatures

Place Temperature
No Stations Reporting

Nearby Weather Stations